Terminal Aerodrome Forecast
Issued by NWS Charleston, WV

Current Version | Previous Version | Graphics & Text | Print | Product List | Glossary Off
Versions: 1 2 3 4 5 6 7 8 9 10 11 12 13 14 15 16 17 18 19 20 21 22 23 24 25 26 27 28 29 30 31 32

000
FTUS41 KRLX 221100
TAFEKN
TAF
KEKN 221129Z 2212/2312 00000KT 2SM BR BKN003
      TEMPO 2212/2213 4SM BR FEW003
     FM221300 00000KT P6SM SCT030
     FM221500 VRB03KT P6SM SCT040
     FM221800 VRB03KT P6SM VCTS BKN045CB
     FM222300 VRB03KT P6SM SCT050
     FM230600 VRB03KT 4SM BR SCT001
     FM231000 19004KT 2SM BR SCT001=

USA.gov is the U.S. government's official web portal to all federal, state and local government web resources and services.